createdAt,value
2019-03-08T00:01:38.190Z,6.30
2019-03-08T00:04:05.034Z,6.20
2019-03-08T00:06:31.877Z,6.20
2019-03-08T00:08:59.028Z,6.20
2019-03-08T00:11:25.872Z,6.10
2019-03-08T00:13:52.453Z,6.10
2019-03-08T00:16:19.558Z,6.00
2019-03-08T00:18:46.401Z,5.90
2019-03-08T00:21:13.245Z,6.00
2019-03-08T00:23:40.091Z,6.00
2019-03-08T00:26:06.935Z,6.00
2019-03-08T00:28:33.511Z,5.90
2019-03-08T00:31:00.311Z,5.90
2019-03-08T00:33:26.897Z,6.00
2019-03-08T00:35:53.736Z,5.90
2019-03-08T00:38:20.534Z,5.90
2019-03-08T00:40:47.686Z,5.90
2019-03-08T00:43:14.268Z,5.90
2019-03-08T00:45:41.064Z,5.90
2019-03-08T00:48:07.908Z,5.90
2019-03-08T00:50:34.751Z,5.80
2019-03-08T00:53:01.595Z,5.80
2019-03-08T00:55:28.747Z,5.70
2019-03-08T00:57:55.590Z,5.70
2019-03-08T01:00:22.446Z,5.70
2019-03-08T01:02:49.277Z,5.70
2019-03-08T01:05:16.733Z,5.70
2019-03-08T01:07:43.886Z,5.70
2019-03-08T01:10:18.410Z,5.70
2019-03-08T01:12:45.563Z,5.70
2019-03-08T01:15:13.369Z,5.80
2019-03-08T01:17:40.167Z,5.70
2019-03-08T01:20:09.468Z,5.70
2019-03-08T01:22:36.314Z,5.70
2019-03-08T01:25:05.305Z,5.70
2019-03-08T01:27:32.455Z,5.70
2019-03-08T01:29:59.299Z,5.70
2019-03-08T01:32:26.144Z,5.60
2019-03-08T01:34:52.988Z,5.70
2019-03-08T01:37:20.513Z,5.60
2019-03-08T01:39:47.290Z,5.70
2019-03-08T01:42:14.438Z,5.60
2019-03-08T01:44:41.588Z,5.60
2019-03-08T01:47:08.431Z,5.60
2019-03-08T01:49:35.276Z,5.50
2019-03-08T01:52:02.120Z,5.50
2019-03-08T01:54:28.706Z,5.50
2019-03-08T01:56:55.499Z,5.50
2019-03-08T01:59:22.356Z,5.40
2019-03-08T02:01:49.801Z,5.40
2019-03-08T02:04:16.643Z,5.40
2019-03-08T02:06:43.487Z,5.50
2019-03-08T02:09:10.331Z,5.40
2019-03-08T02:11:37.173Z,5.50
2019-03-08T02:14:04.017Z,5.40
2019-03-08T02:16:30.861Z,5.40
2019-03-08T02:18:58.317Z,5.40
2019-03-08T02:21:25.135Z,5.40
2019-03-08T02:23:51.697Z,5.40
2019-03-08T02:26:18.541Z,5.30
2019-03-08T02:28:45.120Z,5.30
2019-03-08T02:31:11.968Z,5.20
2019-03-08T02:33:38.765Z,5.20
2019-03-08T02:36:05.609Z,5.20
2019-03-08T02:38:32.143Z,5.20
2019-03-08T02:40:58.986Z,5.10
2019-03-08T02:43:26.139Z,5.10
2019-03-08T02:45:52.980Z,5.10
2019-03-08T02:48:19.825Z,5.10
2019-03-08T02:50:46.667Z,5.10
2019-03-08T02:53:13.524Z,5.10
2019-03-08T02:55:40.354Z,5.00
2019-03-08T02:58:07.508Z,5.10
2019-03-08T03:00:35.884Z,5.10
2019-03-08T03:03:02.728Z,5.00
2019-03-08T03:05:29.571Z,5.00
2019-03-08T03:07:56.721Z,5.00
2019-03-08T03:10:23.566Z,5.00
2019-03-08T03:12:50.413Z,5.00
2019-03-08T03:15:17.252Z,5.00
2019-03-08T03:17:44.126Z,4.90
2019-03-08T03:20:11.861Z,4.80
2019-03-08T03:22:38.706Z,4.80
2019-03-08T03:25:06.209Z,4.80
2019-03-08T03:27:33.005Z,4.80
2019-03-08T03:29:59.848Z,4.70
2019-03-08T03:32:26.692Z,4.80
2019-03-08T03:34:53.535Z,4.80
2019-03-08T03:37:20.378Z,4.80
2019-03-08T03:39:47.222Z,4.80
2019-03-08T03:42:13.804Z,4.80
2019-03-08T03:44:40.909Z,4.80
2019-03-08T03:47:07.752Z,4.90
2019-03-08T03:49:34.596Z,4.80
2019-03-08T03:52:01.439Z,4.90
2019-03-08T03:54:28.290Z,4.90
2019-03-08T03:56:55.128Z,4.90
2019-03-08T03:59:21.970Z,4.90
2019-03-08T04:01:49.734Z,4.90
2019-03-08T04:04:16.577Z,4.90
2019-03-08T04:06:43.422Z,4.90
2019-03-08T04:09:10.692Z,5.00
2019-03-08T04:11:37.416Z,5.00
2019-03-08T04:14:04.257Z,5.00
2019-03-08T04:16:30.840Z,5.00
2019-03-08T04:18:57.638Z,5.00
2019-03-08T04:21:24.481Z,5.00
2019-03-08T04:23:51.064Z,5.10
2019-03-08T04:26:17.861Z,5.10
2019-03-08T04:28:44.706Z,5.10
2019-03-08T04:31:11.548Z,5.10
2019-03-08T04:33:38.393Z,5.20
2019-03-08T04:36:05.236Z,5.20
2019-03-08T04:38:32.082Z,5.10
2019-03-08T04:40:58.924Z,5.20
2019-03-08T04:43:25.778Z,5.30
2019-03-08T04:45:52.609Z,5.30
2019-03-08T04:48:19.145Z,5.30
2019-03-08T04:50:45.987Z,5.30
2019-03-08T04:53:13.138Z,5.30
2019-03-08T04:55:39.981Z,5.30
2019-03-08T04:58:06.824Z,5.40
2019-03-08T05:00:33.362Z,5.40
2019-03-08T05:02:59.897Z,5.50
2019-03-08T05:05:26.741Z,5.50
2019-03-08T05:07:55.119Z,5.50
2019-03-08T05:10:21.963Z,5.50
2019-03-08T05:12:48.811Z,5.50
2019-03-08T05:15:16.265Z,5.60
2019-03-08T05:17:43.109Z,5.60
2019-03-08T05:20:10.259Z,5.50
2019-03-08T05:22:37.102Z,5.60
2019-03-08T05:25:05.176Z,5.60
2019-03-08T05:27:32.019Z,5.60
2019-03-08T05:29:58.862Z,5.60
2019-03-08T05:32:25.704Z,5.60
2019-03-08T05:34:52.284Z,5.60
2019-03-08T05:37:18.825Z,5.60
2019-03-08T05:39:45.356Z,5.60
2019-03-08T05:42:12.157Z,5.60
2019-03-08T05:44:39.307Z,5.60
2019-03-08T05:47:06.061Z,5.60
2019-03-08T05:49:32.687Z,5.60
2019-03-08T05:51:59.531Z,5.70
2019-03-08T05:54:26.118Z,5.70
2019-03-08T05:56:52.911Z,5.70
2019-03-08T05:59:19.753Z,5.70
2019-03-08T06:01:46.597Z,5.80
2019-03-08T06:04:13.440Z,5.80
2019-03-08T06:06:40.283Z,5.90
2019-03-08T06:09:07.175Z,5.80
2019-03-08T06:11:33.970Z,5.90
2019-03-08T06:14:00.814Z,5.90
2019-03-08T06:16:27.458Z,5.90
2019-03-08T06:18:54.193Z,5.90
2019-03-08T06:21:21.038Z,5.90
2019-03-08T06:23:47.619Z,5.90
2019-03-08T06:26:14.417Z,6.00
2019-03-08T06:28:41.261Z,5.90
2019-03-08T06:31:08.104Z,6.00
2019-03-08T06:33:34.950Z,6.10
2019-03-08T06:36:01.790Z,6.10
2019-03-08T06:38:28.376Z,6.10
2019-03-08T06:40:55.170Z,6.00
2019-03-08T06:43:22.014Z,6.10
2019-03-08T06:45:48.857Z,6.10
2019-03-08T06:48:15.702Z,6.20
2019-03-08T06:50:42.236Z,6.20
2019-03-08T06:53:09.083Z,6.10
2019-03-08T06:55:35.923Z,6.10
2019-03-08T06:58:03.687Z,6.20
2019-03-08T07:00:41.283Z,6.20
2019-03-08T07:03:09.049Z,6.30
2019-03-08T07:05:35.585Z,6.30
2019-03-08T07:08:02.121Z,6.30
2019-03-08T07:10:29.011Z,6.40
2019-03-08T07:13:02.925Z,6.40
2019-03-08T07:15:24.189Z,6.40
2019-03-08T07:17:50.772Z,6.50
2019-03-08T07:20:19.102Z,6.50
2019-03-08T07:23:04.071Z,6.50
2019-03-08T07:25:38.953Z,6.50
2019-03-08T07:28:10.353Z,6.60
2019-03-08T07:30:57.702Z,6.60
2019-03-08T07:33:39.368Z,6.70
2019-03-08T07:36:24.894Z,6.70
2019-03-08T07:38:59.474Z,6.80
2019-03-08T07:41:44.754Z,6.80
2019-03-08T07:44:22.040Z,6.90
2019-03-08T07:46:53.228Z,6.90
2019-03-08T07:49:24.327Z,7.00
2019-03-08T07:51:59.158Z,7.10
2019-03-08T07:54:30.302Z,7.10
2019-03-08T07:57:01.492Z,7.10
2019-03-08T07:59:35.662Z,7.20
2019-03-08T08:02:19.404Z,7.20
2019-03-08T08:04:47.782Z,7.30
2019-03-08T08:07:16.161Z,7.30
2019-03-08T08:09:59.592Z,7.30
2019-03-08T08:12:37.495Z,7.40
2019-03-08T08:15:07.721Z,7.40
2019-03-08T08:17:38.822Z,7.40
2019-03-08T08:20:16.619Z,7.50
2019-03-08T08:22:48.217Z,7.50
2019-03-08T08:25:22.445Z,7.60
2019-03-08T08:27:50.812Z,7.60
2019-03-08T08:30:19.192Z,7.60
2019-03-08T08:32:50.688Z,7.60
2019-03-08T08:35:19.026Z,7.60
2019-03-08T08:37:53.549Z,7.70
2019-03-08T08:40:31.142Z,7.70
2019-03-08T08:43:08.431Z,7.70
2019-03-08T08:45:49.097Z,7.80
2019-03-08T08:48:20.289Z,7.80
2019-03-08T08:50:48.928Z,7.80
2019-03-08T08:53:17.308Z,7.90
2019-03-08T08:56:01.166Z,7.90
2019-03-08T08:58:38.336Z,8.00
2019-03-08T09:01:21.851Z,8.00
2019-03-08T09:03:50.455Z,8.00
2019-03-08T09:06:18.835Z,8.00
2019-03-08T09:08:47.541Z,8.00
2019-03-08T09:11:32.491Z,8.00
2019-03-08T09:14:13.464Z,7.90
2019-03-08T09:16:41.844Z,7.90
2019-03-08T09:19:28.655Z,7.90
2019-03-08T09:21:57.034Z,7.90
2019-03-08T09:24:25.721Z,7.80
2019-03-08T09:27:00.246Z,7.80
2019-03-08T09:29:44.906Z,7.80
2019-03-08T09:32:13.285Z,7.80
2019-03-08T09:34:53.953Z,7.80
2019-03-08T09:37:22.381Z,7.70
2019-03-08T09:40:07.301Z,7.70
2019-03-08T09:42:50.734Z,7.60
2019-03-08T09:45:36.009Z,7.60
2019-03-08T09:48:04.388Z,7.60
2019-03-08T09:50:32.770Z,7.60
2019-03-08T09:53:01.454Z,7.60
2019-03-08T09:55:32.598Z,7.60
2019-03-08T09:58:01.284Z,7.60
2019-03-08T10:00:32.429Z,7.60
2019-03-08T10:03:00.809Z,7.60
2019-03-08T10:05:29.495Z,7.70
2019-03-08T10:08:04.019Z,7.70
2019-03-08T10:10:32.705Z,7.70
2019-03-08T10:13:16.445Z,7.80
2019-03-08T10:15:47.896Z,7.90
2019-03-08T10:18:16.220Z,7.90
2019-03-08T10:20:44.660Z,7.90
2019-03-08T10:23:19.706Z,8.00
2019-03-08T10:25:49.401Z,8.10
2019-03-08T10:28:20.801Z,8.20
2019-03-08T10:31:06.129Z,8.20
2019-03-08T10:33:46.437Z,8.20
2019-03-08T10:36:13.639Z,8.20
2019-03-08T10:38:42.326Z,8.20
2019-03-08T10:41:11.018Z,8.30
2019-03-08T10:43:45.231Z,8.30
2019-03-08T10:46:16.680Z,8.20
2019-03-08T10:49:03.705Z,8.20
2019-03-08T10:51:49.382Z,8.20
2019-03-08T10:54:20.526Z,8.10
2019-03-08T10:56:51.671Z,8.10
2019-03-08T10:59:31.305Z,8.10
2019-03-08T11:01:59.796Z,8.10
2019-03-08T11:04:28.332Z,8.00
2019-03-08T11:06:56.862Z,8.00
2019-03-08T11:09:25.250Z,8.00
2019-03-08T11:11:53.781Z,8.00
2019-03-08T11:14:38.636Z,8.00
2019-03-08T11:17:16.493Z,8.00
2019-03-08T11:19:47.944Z,8.00
2019-03-08T11:22:31.421Z,8.00
2019-03-08T11:25:07.751Z,8.00
2019-03-08T11:27:29.978Z,7.90
2019-03-08T11:29:58.664Z,7.90
2019-03-08T11:32:30.425Z,7.90
2019-03-08T11:35:08.019Z,7.90
2019-03-08T11:37:39.479Z,8.00
2019-03-08T11:40:09.693Z,7.90
2019-03-08T11:42:47.288Z,7.90
2019-03-08T11:45:30.720Z,7.90
2019-03-08T11:48:11.695Z,7.80
2019-03-08T11:50:49.291Z,7.70
2019-03-08T11:53:27.193Z,7.70
2019-03-08T11:55:55.574Z,7.60
2019-03-08T11:58:42.393Z,7.60
2019-03-08T12:01:16.909Z,7.60
2019-03-08T12:03:54.504Z,7.60
2019-03-08T12:06:25.959Z,7.60
2019-03-08T12:08:54.641Z,7.70
2019-03-08T12:11:31.904Z,7.80
2019-03-08T12:14:00.311Z,7.80
2019-03-08T12:16:31.767Z,7.80
2019-03-08T12:19:00.142Z,7.90
2019-03-08T12:21:34.971Z,7.90
2019-03-08T12:24:09.504Z,7.90
2019-03-08T12:26:54.789Z,8.00
2019-03-08T12:29:23.764Z,8.10
2019-03-08T12:31:52.144Z,8.10
2019-03-08T12:34:26.052Z,8.10
2019-03-08T12:36:54.432Z,8.00
2019-03-08T12:39:26.191Z,8.10
2019-03-08T12:41:57.335Z,8.10
2019-03-08T12:44:26.024Z,8.10
2019-03-08T12:46:54.402Z,8.00
2019-03-08T12:49:22.781Z,8.10
2019-03-08T12:51:51.467Z,8.10
2019-03-08T12:54:29.064Z,8.10
2019-03-08T12:56:57.488Z,8.10
2019-03-08T12:59:38.420Z,8.10
2019-03-08T13:02:12.941Z,8.10
2019-03-08T13:04:47.464Z,8.10
2019-03-08T13:07:32.739Z,8.10
2019-03-08T13:10:01.426Z,8.10
2019-03-08T13:12:28.270Z,8.10
2019-03-08T13:14:55.113Z,8.10
2019-03-08T13:17:21.956Z,8.10
2019-03-08T13:19:48.856Z,8.10
2019-03-08T13:22:15.426Z,8.10
2019-03-08T13:24:42.179Z,8.10
2019-03-08T13:27:09.022Z,8.00
2019-03-08T13:29:35.604Z,8.10
2019-03-08T13:32:02.402Z,8.10
2019-03-08T13:34:29.247Z,8.10
2019-03-08T13:36:56.090Z,8.00
2019-03-08T13:39:22.934Z,8.00
2019-03-08T13:41:49.776Z,8.00
2019-03-08T13:44:16.620Z,7.90
2019-03-08T13:46:43.510Z,7.90
2019-03-08T13:49:10.306Z,7.90
2019-03-08T13:51:37.150Z,7.90
2019-03-08T13:54:03.998Z,7.90
2019-03-08T13:56:30.841Z,7.90
2019-03-08T13:58:57.416Z,7.90
2019-03-08T14:01:24.216Z,7.90
2019-03-08T14:03:51.067Z,7.90
2019-03-08T14:06:17.905Z,7.90
2019-03-08T14:08:45.312Z,7.90
2019-03-08T14:11:11.840Z,7.90
2019-03-08T14:13:38.480Z,8.00
2019-03-08T14:16:05.278Z,7.90
2019-03-08T14:18:32.120Z,7.90
2019-03-08T14:20:58.656Z,7.90
2019-03-08T14:23:25.191Z,7.90
2019-03-08T14:25:52.035Z,7.90
2019-03-08T14:28:18.880Z,7.90
2019-03-08T14:30:57.838Z,7.80
2019-03-08T14:33:21.475Z,7.80
2019-03-08T14:35:48.319Z,7.90
2019-03-08T14:38:15.164Z,7.90
2019-03-08T14:40:43.848Z,7.90
2019-03-08T14:43:18.064Z,7.90
2019-03-08T14:45:49.517Z,8.00
2019-03-08T14:48:16.359Z,8.00
2019-03-08T14:50:43.202Z,8.00
2019-03-08T14:53:10.046Z,8.00
2019-03-08T14:55:36.892Z,8.10
2019-03-08T14:58:03.735Z,8.10
2019-03-08T15:00:30.576Z,8.10
2019-03-08T15:02:57.419Z,8.10
2019-03-08T15:05:24.263Z,8.10
2019-03-08T15:07:51.166Z,8.20
2019-03-08T15:10:18.565Z,8.20
2019-03-08T15:12:48.911Z,8.20
2019-03-08T15:15:15.016Z,8.30
2019-03-08T15:17:41.875Z,8.30
2019-03-08T15:20:15.427Z,8.30
2019-03-08T15:22:41.382Z,8.30
2019-03-08T15:25:12.594Z,8.40
2019-03-08T15:27:39.985Z,8.30
2019-03-08T15:30:11.130Z,8.30
2019-03-08T15:32:37.668Z,8.30
2019-03-08T15:35:06.048Z,8.30
2019-03-08T15:37:32.888Z,8.30
2019-03-08T15:39:59.731Z,8.30
2019-03-08T15:42:26.575Z,8.30
2019-03-08T15:44:53.420Z,8.30
2019-03-08T15:47:23.586Z,8.30
2019-03-08T15:49:48.382Z,8.30
2019-03-08T15:52:15.489Z,8.30
2019-03-08T15:54:42.327Z,8.30
2019-03-08T15:57:08.908Z,8.30
2019-03-08T15:59:35.444Z,8.30
2019-03-08T16:02:05.787Z,8.30
2019-03-08T16:04:30.623Z,8.30
2019-03-08T16:06:57.466Z,8.30
2019-03-08T16:09:24.310Z,8.30
2019-03-08T16:11:51.153Z,8.30
2019-03-08T16:14:17.997Z,8.30
2019-03-08T16:16:44.840Z,8.40
2019-03-08T16:19:11.683Z,8.40
2019-03-08T16:21:38.527Z,8.50
2019-03-08T16:24:05.372Z,8.70
2019-03-08T16:26:32.214Z,8.80
2019-03-08T16:28:59.058Z,8.90
2019-03-08T16:31:30.583Z,9.00
2019-03-08T16:34:01.962Z,9.10
2019-03-08T16:36:46.007Z,9.10
2019-03-08T16:39:14.432Z,9.10
2019-03-08T16:42:01.209Z,9.10
2019-03-08T16:44:32.958Z,9.20
2019-03-08T16:47:12.364Z,9.20
2019-03-08T16:49:43.573Z,9.30
2019-03-08T16:52:18.063Z,9.30
2019-03-08T16:55:01.504Z,9.20
2019-03-08T16:57:46.465Z,9.30
2019-03-08T17:00:32.969Z,9.30
2019-03-08T17:03:10.259Z,9.30
2019-03-08T17:05:47.238Z,9.30
2019-03-08T17:08:18.996Z,9.30
2019-03-08T17:10:47.686Z,9.30
2019-03-08T17:13:16.677Z,9.20
2019-03-08T17:15:45.363Z,9.20
2019-03-08T17:18:22.653Z,9.20
2019-03-08T17:20:51.031Z,9.10
2019-03-08T17:23:28.320Z,9.00
2019-03-08T17:26:15.131Z,9.00
2019-03-08T17:28:46.582Z,9.00
2019-03-08T17:31:21.106Z,8.90
2019-03-08T17:33:51.988Z,8.80
2019-03-08T17:36:20.322Z,8.80
2019-03-08T17:38:52.400Z,8.70
2019-03-08T17:41:22.546Z,8.70
2019-03-08T17:44:06.044Z,8.70
2019-03-08T17:46:37.494Z,8.70
2019-03-08T17:49:08.684Z,8.70
2019-03-08T17:51:53.607Z,8.60
2019-03-08T17:54:37.347Z,8.60
2019-03-08T17:57:11.564Z,8.60
2019-03-08T17:59:57.146Z,8.60
2019-03-08T18:02:31.642Z,8.50
2019-03-08T18:05:09.265Z,8.50
2019-03-08T18:07:46.896Z,8.50
2019-03-08T18:10:31.829Z,8.40
2019-03-08T18:13:00.516Z,8.40
2019-03-08T18:15:28.944Z,8.40
2019-03-08T18:17:57.275Z,8.40
2019-03-08T18:20:25.961Z,8.40
2019-03-08T18:22:54.957Z,8.40
2019-03-08T18:25:23.335Z,8.40
2019-03-08T18:28:08.610Z,8.40
2019-03-08T18:30:37.246Z,8.50
2019-03-08T18:33:11.820Z,8.50
2019-03-08T18:35:46.037Z,8.50
2019-03-08T18:38:26.397Z,8.50
2019-03-08T18:40:54.776Z,8.50
2019-03-08T18:43:35.751Z,8.50
2019-03-08T18:46:10.582Z,8.60
2019-03-08T18:48:47.608Z,8.60
2019-03-08T18:51:24.852Z,8.60
2019-03-08T18:54:10.128Z,8.60
2019-03-08T18:56:55.403Z,8.60
2019-03-08T18:59:26.547Z,8.60
2019-03-08T19:02:07.522Z,8.60
2019-03-08T19:04:41.737Z,8.60
2019-03-08T19:07:26.707Z,8.60
2019-03-08T19:09:58.158Z,8.60
2019-03-08T19:12:33.770Z,8.60
2019-03-08T19:15:20.722Z,8.60
2019-03-08T19:18:05.690Z,8.60
2019-03-08T19:20:40.219Z,8.50
2019-03-08T19:23:26.793Z,8.50
2019-03-08T19:25:55.407Z,8.50
2019-03-08T19:28:26.701Z,8.50
2019-03-08T19:30:58.308Z,8.50
2019-03-08T19:33:32.532Z,8.50
2019-03-08T19:36:00.948Z,8.50
2019-03-08T19:38:37.886Z,8.60
2019-03-08T19:41:24.696Z,8.60
2019-03-08T19:44:01.986Z,8.60
2019-03-08T19:46:46.953Z,8.60
2019-03-08T19:49:15.640Z,8.60
2019-03-08T19:51:44.019Z,8.60
2019-03-08T19:54:18.849Z,8.60
2019-03-08T19:56:49.993Z,8.60
2019-03-08T19:59:18.375Z,8.60
2019-03-08T20:01:50.133Z,8.60
2019-03-08T20:04:21.277Z,8.60
2019-03-08T20:06:49.852Z,8.70
2019-03-08T20:09:30.633Z,8.70
2019-03-08T20:12:11.298Z,8.70
2019-03-08T20:14:45.445Z,8.60
2019-03-08T20:17:20.038Z,8.60
2019-03-08T20:20:03.783Z,8.50
2019-03-08T20:22:32.209Z,8.50
2019-03-08T20:25:06.688Z,8.40
2019-03-08T20:27:44.275Z,8.30
2019-03-08T20:30:28.331Z,8.20
2019-03-08T20:33:13.291Z,8.20
2019-03-08T20:35:47.815Z,8.10
2019-03-08T20:38:28.789Z,8.10
2019-03-08T20:40:57.785Z,8.10
2019-03-08T20:43:28.929Z,8.00
2019-03-08T20:45:57.307Z,8.00
2019-03-08T20:48:24.150Z,8.00
2019-03-08T20:50:50.995Z,8.00
2019-03-08T20:53:17.837Z,7.90
2019-03-08T20:55:44.682Z,7.90
2019-03-08T20:58:11.523Z,7.90
2019-03-08T21:00:38.104Z,7.80
2019-03-08T21:03:04.903Z,7.80
2019-03-08T21:05:32.054Z,7.80
2019-03-08T21:07:58.897Z,7.70
2019-03-08T21:10:25.741Z,7.70
2019-03-08T21:12:52.320Z,7.70
2019-03-08T21:15:25.503Z,7.60
2019-03-08T21:17:47.505Z,7.60
2019-03-08T21:20:14.344Z,7.60
2019-03-08T21:22:41.187Z,7.50
2019-03-08T21:25:14.420Z,7.50
2019-03-08T21:27:41.020Z,7.50
2019-03-08T21:30:09.396Z,7.40
2019-03-08T21:32:36.239Z,7.40
2019-03-08T21:35:03.393Z,7.40
2019-03-08T21:37:30.235Z,7.40
2019-03-08T21:39:57.394Z,7.30
2019-03-08T21:42:24.227Z,7.40
2019-03-08T21:44:50.813Z,7.40
2019-03-08T21:47:17.607Z,7.40
2019-03-08T21:49:44.188Z,7.40
2019-03-08T21:52:10.987Z,7.40
2019-03-08T21:54:37.830Z,7.40
2019-03-08T21:57:04.674Z,7.40
2019-03-08T21:59:31.517Z,7.40
2019-03-08T22:01:58.360Z,7.40
2019-03-08T22:04:30.425Z,7.40
2019-03-08T22:06:57.012Z,7.40
2019-03-08T22:09:34.300Z,7.30
2019-03-08T22:12:01.402Z,7.30
2019-03-08T22:14:27.984Z,7.30
2019-03-08T22:16:54.781Z,7.20
2019-03-08T22:19:21.364Z,7.10
